This is the latest recevied weather packets stored in our database for station/object SV1JCZ-13. If no packets are shown the sender has not sent any weather packets the latest 1 day(s).
| Time | Temp. | Humidity | Pressure | Rain* | Wind** | Luminosity | Snow |
|---|---|---|---|---|---|---|---|
| 1777990143 | 27.22° C | 22% | 0 hPa | 0 mm | 1.79 m/s, 309° | - | - |
| 1777989783 | 26.67° C | 22% | 0 hPa | 0 mm | 0 m/s | - | - |
| 1777989423 | 26.67° C | 22% | 0 hPa | 0 mm | 0 m/s | - | - |
| 1777989063 | 26.11° C | 23% | 0 hPa | 0 mm | 0 m/s | - | - |
| 1777988703 | 26.11° C | 24% | 0 hPa | 0 mm | 0.45 m/s, 277° | - | - |
| 1777988343 | 25.56° C | 25% | 0 hPa | 0 mm | 1.79 m/s, 331° | - | - |
| 1777987983 | 25° C | 24% | 0 hPa | 0 mm | 0 m/s | - | - |
| 1777987623 | 24.44° C | 24% | 0 hPa | 0 mm | 0 m/s | - | - |
| 1777987263 | 23.89° C | 26% | 0 hPa | 0 mm | 0 m/s | - | - |
| 1777986903 | 23.33° C | 27% | 0 hPa | 0 mm | 2.24 m/s, 32° | - | - |
| 1777986543 | 22.78° C | 29% | 0 hPa | 0 mm | 0 m/s | - | - |
| 1777986186 | 22.22° C | 30% | 0 hPa | 0 mm | 4.47 m/s, 345° | - | - |
| 1777985823 | 22.22° C | 31% | 0 hPa | 0 mm | 0 m/s | - | - |
| 1777985463 | 21.67° C | 32% | 0 hPa | 0 mm | 0 m/s | - | - |
| 1777985103 | 21.67° C | 31% | 0 hPa | 0 mm | 1.79 m/s, 275° | - | - |
| 1777984743 | 21.67° C | 30% | 0 hPa | 0 mm | 0 m/s | - | - |
| 1777984383 | 21.67° C | 31% | 0 hPa | 0 mm | 1.34 m/s, 341° | - | - |
| 1777984023 | 21.67° C | 31% | 0 hPa | 0 mm | 0.89 m/s, 292° | - | - |
| 1777983663 | 21.67° C | 32% | 0 hPa | 0 mm | 0.89 m/s, 282° | - | - |
| 1777983303 | 21.67° C | 33% | 0 hPa | 0 mm | 3.58 m/s, 309° | - | - |
| 1777982943 | 21.67° C | 31% | 0 hPa | 0 mm | 0 m/s | - | - |
| 1777982583 | 21.11° C | 34% | 0 hPa | 0 mm | 0 m/s | - | - |
| 1777982223 | 21.11° C | 33% | 0 hPa | 0 mm | 0 m/s | - | - |
| 1777981863 | 21.11° C | 33% | 0 hPa | 0 mm | 3.13 m/s, 358° | - | - |
| 1777981503 | 21.11° C | 32% | 0 hPa | 0 mm | 0 m/s | - | - |
* Rain latest hour (hover to see other rain measurements)
** Current wind speed in m/s (hover to see current wind gust speed)